createdAt,value
2022-09-01T00:00:02.241Z,10.54
2022-09-01T00:02:50.931Z,10.50
2022-09-01T00:05:17.806Z,10.50
2022-09-01T00:07:45.117Z,10.53
2022-09-01T00:10:12.052Z,10.56
2022-09-01T00:12:39.098Z,10.56
2022-09-01T00:15:09.472Z,10.57
2022-09-01T00:17:36.443Z,10.53
2022-09-01T00:20:05.402Z,10.55
2022-09-01T00:22:33.833Z,10.53
2022-09-01T00:25:02.165Z,10.54
2022-09-01T00:27:31.039Z,10.53
2022-09-01T00:29:59.033Z,10.46
2022-09-01T00:32:25.997Z,10.48
2022-09-01T00:34:52.918Z,10.48
2022-09-01T00:37:19.973Z,10.48
2022-09-01T00:39:46.769Z,10.48
2022-09-01T00:42:13.595Z,10.49
2022-09-01T00:44:40.642Z,10.48
2022-09-01T00:47:07.539Z,10.47
2022-09-01T00:49:45.663Z,10.48
2022-09-01T00:52:15.866Z,10.43
2022-09-01T00:54:53.730Z,10.41
2022-09-01T00:57:21.790Z,10.42
2022-09-01T01:00:17.660Z,10.38
2022-09-01T01:02:45.806Z,10.40
2022-09-01T01:05:15.208Z,10.39
2022-09-01T01:07:47.290Z,10.39
2022-09-01T01:10:17.162Z,10.40
2022-09-01T01:12:45.340Z,10.40
2022-09-01T01:15:13.924Z,10.37
2022-09-01T01:17:41.193Z,10.38
2022-09-01T01:20:28.247Z,10.32
2022-09-01T01:23:21.696Z,10.27
2022-09-01T01:25:50.366Z,10.28
2022-09-01T01:28:19.287Z,10.22
2022-09-01T01:30:54.991Z,10.21
2022-09-01T01:33:25.424Z,10.22
2022-09-01T01:35:53.921Z,10.23
2022-09-01T01:38:23.008Z,10.22
2022-09-01T01:40:51.933Z,10.23
2022-09-01T01:43:21.972Z,10.25
2022-09-01T01:45:56.760Z,10.18
2022-09-01T01:48:24.643Z,10.18
2022-09-01T01:50:55.018Z,10.17
2022-09-01T01:53:22.584Z,10.16
2022-09-01T01:55:50.195Z,10.16
2022-09-01T01:58:19.923Z,10.13
2022-09-01T02:00:49.192Z,10.11
2022-09-01T02:03:19.971Z,10.11
2022-09-01T02:05:49.171Z,10.09
2022-09-01T02:08:22.809Z,10.09
2022-09-01T02:10:52.201Z,10.08
2022-09-01T02:13:26.151Z,10.06
2022-09-01T02:15:55.917Z,10.05
2022-09-01T02:18:28.056Z,10.02
2022-09-01T02:20:55.511Z,9.96
2022-09-01T02:23:25.869Z,9.95
2022-09-01T02:28:45.884Z,9.93
2022-09-01T02:31:12.877Z,9.91
2022-09-01T02:33:41.915Z,9.88
2022-09-01T02:36:13.984Z,9.85
2022-09-01T02:38:46.597Z,9.83
2022-09-01T02:41:15.519Z,9.79
2022-09-01T02:43:46.293Z,9.76
2022-09-01T02:49:19.885Z,9.63
2022-09-01T02:51:54.032Z,9.61
2022-09-01T02:54:22.907Z,9.56
2022-09-01T02:56:51.155Z,9.55
2022-09-01T02:59:21.785Z,9.48
2022-09-01T03:01:54.135Z,9.44
2022-09-01T03:04:22.561Z,9.40
2022-09-01T03:06:50.984Z,9.35
2022-09-01T03:09:19.477Z,9.30
2022-09-01T03:11:50.043Z,9.24
2022-09-01T03:14:17.703Z,9.24
2022-09-01T03:16:45.356Z,9.18
2022-09-01T03:19:13.084Z,9.12
2022-09-01T03:21:42.672Z,9.09
2022-09-01T03:24:13.022Z,9.09
2022-09-01T03:26:40.609Z,9.06
2022-09-01T03:29:08.738Z,9.03
2022-09-01T03:31:36.715Z,9.00
2022-09-01T03:34:06.107Z,9.00
2022-09-01T03:36:33.537Z,8.94
2022-09-01T03:39:01.298Z,8.94
2022-09-01T03:41:30.979Z,8.93
2022-09-01T03:43:58.966Z,8.89
2022-09-01T03:46:35.666Z,8.88
2022-09-01T03:49:07.531Z,8.85
2022-09-01T03:51:35.086Z,8.83
2022-09-01T03:54:01.927Z,8.83
2022-09-01T03:56:29.761Z,8.84
2022-09-01T03:58:58.943Z,8.82
2022-09-01T04:01:27.850Z,8.82
2022-09-01T04:03:55.051Z,8.85
2022-09-01T04:06:24.409Z,8.86
2022-09-01T04:08:56.943Z,8.86
2022-09-01T04:11:24.288Z,8.87
2022-09-01T04:13:52.385Z,8.89
2022-09-01T04:16:40.685Z,8.91
2022-09-01T04:19:29.082Z,8.94
2022-09-01T04:21:59.893Z,8.99
2022-09-01T04:24:31.191Z,9.05
2022-09-01T04:27:01.838Z,9.15
2022-09-01T04:29:29.985Z,9.26
2022-09-01T04:32:02.665Z,9.33
2022-09-01T04:34:37.443Z,9.35
2022-09-01T04:37:13.307Z,9.44
2022-09-01T04:39:51.423Z,9.49
2022-09-01T04:42:23.686Z,9.56
2022-09-01T04:44:51.915Z,9.66
2022-09-01T04:47:19.880Z,9.75
2022-09-01T04:49:48.376Z,9.81
2022-09-01T04:52:15.549Z,9.89
2022-09-01T04:54:44.874Z,10.02
2022-09-01T04:57:11.717Z,10.17
2022-09-01T04:59:38.759Z,10.28
2022-09-01T05:02:09.654Z,10.37
2022-09-01T05:04:37.523Z,10.42
2022-09-01T05:07:05.989Z,10.50
2022-09-01T05:09:38.120Z,10.60
2022-09-01T05:12:15.482Z,10.71
2022-09-01T05:14:48.727Z,10.84
2022-09-01T05:17:17.343Z,10.92
2022-09-01T05:19:47.867Z,10.96
2022-09-01T05:22:15.793Z,11.06
2022-09-01T05:24:43.045Z,11.19
2022-09-01T05:27:12.388Z,11.31
2022-09-01T05:29:41.686Z,11.44
2022-09-01T05:32:12.697Z,11.56
2022-09-01T05:34:42.506Z,11.76
2022-09-01T05:37:13.196Z,12.08
2022-09-01T05:39:40.348Z,12.46
2022-09-01T05:42:08.545Z,12.79
2022-09-01T05:44:44.543Z,13.10
2022-09-01T05:47:14.853Z,13.38
2022-09-01T05:49:49.888Z,13.63
2022-09-01T05:52:16.819Z,13.88
2022-09-01T05:54:44.202Z,14.14
2022-09-01T05:57:30.744Z,14.49
2022-09-01T05:59:57.990Z,14.86
2022-09-01T06:02:27.365Z,15.42
2022-09-01T06:04:57.027Z,16.29
2022-09-01T06:07:26.862Z,17.07
2022-09-01T06:09:54.019Z,17.49
2022-09-01T06:12:23.454Z,17.67
2022-09-01T06:14:53.695Z,17.86
2022-09-01T06:17:24.984Z,18.08
2022-09-01T06:19:56.753Z,18.21
2022-09-01T06:22:26.261Z,18.25
2022-09-01T06:24:58.275Z,18.21
2022-09-01T06:27:29.540Z,18.42
2022-09-01T06:29:56.520Z,18.74
2022-09-01T06:32:26.096Z,19.15
2022-09-01T06:34:53.445Z,19.74
2022-09-01T06:37:23.149Z,20.61
2022-09-01T06:39:51.007Z,21.61
2022-09-01T06:42:19.625Z,22.63
2022-09-01T06:44:46.489Z,23.56
2022-09-01T06:47:13.855Z,24.22
2022-09-01T06:49:41.059Z,24.80
2022-09-01T06:52:08.614Z,25.40
2022-09-01T06:54:39.264Z,25.89
2022-09-01T06:59:54.308Z,27.29
2022-09-01T07:02:24.479Z,27.81
2022-09-01T07:04:54.059Z,28.32
2022-09-01T07:10:25.442Z,28.70
2022-09-01T07:13:10.871Z,28.19
2022-09-01T07:18:31.062Z,26.32
2022-09-01T07:21:36.267Z,25.76
2022-09-01T07:24:08.697Z,25.54
2022-09-01T07:26:35.816Z,26.05
2022-09-01T07:29:07.147Z,27.05
2022-09-01T07:32:43.436Z,27.95
2022-09-01T07:34:38.753Z,29.04
2022-09-01T07:39:55.470Z,30.93
2022-09-01T07:45:29.252Z,32.46
2022-09-01T07:47:59.562Z,33.24
2022-09-01T07:50:40.208Z,33.75
2022-09-01T07:53:09.580Z,34.10
2022-09-01T07:55:44.057Z,34.36
2022-09-01T07:58:12.255Z,34.72
2022-09-01T08:00:40.662Z,34.90
2022-09-01T08:03:07.523Z,35.22
2022-09-01T08:05:34.759Z,35.49
2022-09-01T08:08:01.676Z,35.85
2022-09-01T08:10:28.726Z,36.17
2022-09-01T08:12:56.798Z,36.38
2022-09-01T08:15:41.284Z,36.53
2022-09-01T08:18:14.229Z,36.32
2022-09-01T08:20:45.676Z,36.37
2022-09-01T08:23:19.109Z,36.74
2022-09-01T08:25:47.469Z,37.22
2022-09-01T08:28:15.849Z,37.57
2022-09-01T08:30:51.243Z,37.76
2022-09-01T08:33:19.990Z,37.78
2022-09-01T08:35:49.456Z,37.68
2022-09-01T08:38:16.586Z,37.75
2022-09-01T08:40:56.411Z,37.85
2022-09-01T08:43:38.011Z,38.02
2022-09-01T08:46:30.610Z,38.11
2022-09-01T08:49:25.694Z,38.40
2022-09-01T08:52:03.219Z,38.53
2022-09-01T08:54:41.094Z,38.65
2022-09-01T08:57:24.185Z,38.72
2022-09-01T08:59:52.580Z,38.96
2022-09-01T09:02:47.869Z,38.75
2022-09-01T09:05:30.057Z,38.87
2022-09-01T09:08:10.959Z,38.79
2022-09-01T09:11:01.364Z,38.58
2022-09-01T09:13:56.809Z,38.40
2022-09-01T09:16:56.763Z,38.22
2022-09-01T09:19:31.203Z,38.42
2022-09-01T09:22:00.787Z,38.60
2022-09-01T10:34:01.088Z,38.87
2022-09-01T10:36:29.257Z,37.47
2022-09-01T10:39:04.785Z,36.81
2022-09-01T10:41:42.618Z,36.54
2022-09-01T10:44:19.351Z,36.60
2022-09-01T10:46:51.187Z,36.03
2022-09-01T10:49:25.163Z,36.14
2022-09-01T10:52:02.584Z,36.69
2022-09-01T10:54:55.856Z,36.78
2022-09-01T10:57:42.905Z,37.31
2022-09-01T11:00:36.553Z,37.76
2022-09-01T11:06:17.539Z,38.72
2022-09-01T11:09:01.037Z,38.89
2022-09-01T11:12:03.424Z,38.50
2022-09-01T11:14:35.893Z,37.39
2022-09-01T11:17:25.561Z,35.92
2022-09-01T11:20:27.272Z,35.40
2022-09-01T11:22:56.957Z,34.51
2022-09-01T11:25:45.207Z,33.74
2022-09-01T11:28:15.090Z,33.88
2022-09-01T11:31:04.100Z,34.54
2022-09-01T11:33:34.217Z,35.23
2022-09-01T11:36:03.040Z,35.98
2022-09-01T11:38:41.955Z,36.72
2022-09-01T11:41:09.175Z,37.45
2022-09-01T11:43:36.687Z,37.47
2022-09-01T11:46:16.344Z,37.48
2022-09-01T11:48:52.095Z,37.27
2022-09-01T11:51:21.533Z,36.40
2022-09-01T11:53:50.695Z,35.07
2022-09-01T11:56:24.876Z,33.55
2022-09-01T11:58:51.995Z,32.03
2022-09-01T12:01:22.178Z,30.94
2022-09-01T12:03:53.230Z,30.13
2022-09-01T12:06:27.287Z,29.47
2022-09-01T12:08:57.151Z,29.41
2022-09-01T12:11:31.546Z,30.14
2022-09-01T12:14:03.407Z,31.18
2022-09-01T12:16:35.840Z,31.53
2022-09-01T12:19:04.320Z,31.16
2022-09-01T12:21:43.159Z,30.34
2022-09-01T12:24:22.147Z,29.60
2022-09-01T12:26:52.009Z,28.93
2022-09-01T12:29:19.594Z,28.28
2022-09-01T12:31:50.549Z,27.73
2022-09-01T12:34:28.455Z,27.01
2022-09-01T12:37:07.884Z,26.60
2022-09-01T12:39:46.727Z,26.34
2022-09-01T12:42:19.847Z,26.00
2022-09-01T12:45:02.855Z,25.76
2022-09-01T12:47:50.250Z,25.54
2022-09-01T12:50:17.434Z,25.30
2022-09-01T12:52:52.382Z,25.14
2022-09-01T12:58:10.208Z,24.92
2022-09-01T13:00:56.316Z,24.92
2022-09-01T13:03:23.791Z,25.09
2022-09-01T13:05:53.740Z,25.06
2022-09-01T13:08:27.068Z,24.92
2022-09-01T13:11:04.576Z,24.74
2022-09-01T13:13:31.787Z,24.73
2022-09-01T13:16:08.624Z,24.82
2022-09-01T13:19:10.326Z,24.99
2022-09-01T13:21:22.692Z,25.09
2022-09-01T13:23:50.765Z,25.23
2022-09-01T13:26:17.955Z,25.30
2022-09-01T13:28:46.148Z,25.27
2022-09-01T13:31:29.900Z,25.24
2022-09-01T13:34:21.871Z,25.18
2022-09-01T13:36:51.595Z,25.15
2022-09-01T13:39:21.021Z,25.15
2022-09-01T13:41:49.429Z,25.08
2022-09-01T13:44:17.345Z,25.02
2022-09-01T13:47:28.545Z,24.93
2022-09-01T13:52:21.771Z,24.84
2022-09-01T13:54:48.645Z,24.85
2022-09-01T13:57:16.715Z,24.86
2022-09-01T13:59:44.848Z,24.81
2022-09-01T14:02:11.702Z,24.81
2022-09-01T14:04:38.718Z,24.77
2022-09-01T14:07:06.607Z,24.71
2022-09-01T14:09:35.520Z,24.66
2022-09-01T14:12:02.908Z,24.64
2022-09-01T14:17:16.917Z,24.53
2022-09-01T14:19:44.247Z,24.42
2022-09-01T14:22:11.097Z,24.35
2022-09-01T14:24:40.825Z,24.28
2022-09-01T14:27:08.199Z,24.20
2022-09-01T14:32:03.907Z,24.33
2022-09-01T14:34:31.139Z,24.53
2022-09-01T14:36:58.158Z,24.74
2022-09-01T14:39:25.162Z,24.92
2022-09-01T14:41:52.284Z,25.07
2022-09-01T14:44:19.104Z,25.11
2022-09-01T14:46:46.873Z,25.16
2022-09-01T14:49:19.046Z,25.23
2022-09-01T14:54:37.871Z,25.25
2022-09-01T14:59:53.260Z,25.08
2022-09-01T15:02:20.186Z,24.98
2022-09-01T15:04:47.119Z,24.98
2022-09-01T15:07:15.380Z,24.97
2022-09-01T15:09:42.688Z,24.93
2022-09-01T15:12:09.767Z,24.85
2022-09-01T15:14:37.822Z,24.73
2022-09-01T15:17:05.703Z,24.58
2022-09-01T15:19:33.030Z,24.42
2022-09-01T15:22:01.025Z,24.30
2022-09-01T15:24:27.888Z,24.14
2022-09-01T15:26:55.081Z,23.99
2022-09-01T15:29:22.220Z,23.78
2022-09-01T15:31:49.508Z,23.66
2022-09-01T15:34:19.029Z,23.53
2022-09-01T15:36:46.181Z,23.39
2022-09-01T15:39:13.215Z,23.28
2022-09-01T15:41:40.282Z,23.05
2022-09-01T15:44:08.200Z,22.85
2022-09-01T15:46:39.004Z,22.67
2022-09-01T15:49:08.646Z,22.51
2022-09-01T15:51:43.570Z,22.35
2022-09-01T15:54:16.707Z,22.17
2022-09-01T15:56:45.097Z,22.04
2022-09-01T15:59:12.871Z,21.87
2022-09-01T16:01:43.932Z,21.73
2022-09-01T16:04:19.105Z,21.58
2022-09-01T16:06:49.568Z,21.44
2022-09-01T16:09:18.553Z,21.31
2022-09-01T16:11:45.534Z,21.16
2022-09-01T16:14:12.796Z,21.03
2022-09-01T16:16:44.357Z,20.91
2022-09-01T16:19:17.023Z,20.77
2022-09-01T16:21:53.349Z,20.67
2022-09-01T16:24:20.454Z,20.53
2022-09-01T16:26:48.456Z,20.40
2022-09-01T16:29:24.497Z,20.27
2022-09-01T16:31:55.700Z,20.15
2022-09-01T16:34:27.680Z,20.05
2022-09-01T16:37:10.347Z,19.93
2022-09-01T16:39:50.946Z,19.79
2022-09-01T16:42:37.781Z,19.71
2022-09-01T16:45:12.104Z,19.61
2022-09-01T16:48:24.416Z,19.46
2022-09-01T16:51:06.720Z,19.35
2022-09-01T16:54:12.307Z,19.17
2022-09-01T16:57:08.306Z,19.05
2022-09-01T16:59:55.686Z,18.95
2022-09-01T17:03:17.029Z,18.75
2022-09-01T17:05:55.705Z,18.65
2022-09-01T17:08:29.622Z,18.52
2022-09-01T17:11:24.232Z,18.35
2022-09-01T17:13:52.217Z,18.25
2022-09-01T17:16:29.935Z,18.07
2022-09-01T17:19:04.909Z,17.93
2022-09-01T17:21:53.039Z,17.77
2022-09-01T17:24:32.130Z,17.62
2022-09-01T17:27:07.792Z,17.49
2022-09-01T17:29:45.036Z,17.34
2022-09-01T17:32:34.823Z,17.20
2022-09-01T17:35:07.819Z,17.00
2022-09-01T17:37:58.300Z,16.82
2022-09-01T17:40:46.082Z,16.59
2022-09-01T17:43:45.742Z,16.37
2022-09-01T17:46:38.799Z,16.10
2022-09-01T17:49:43.513Z,15.77
2022-09-01T17:52:20.659Z,15.45
2022-09-01T17:55:07.255Z,15.11
2022-09-01T17:57:44.950Z,14.86
2022-09-01T18:00:26.368Z,14.59
2022-09-01T18:03:14.924Z,14.32
2022-09-01T18:06:26.677Z,13.96
2022-09-01T18:08:58.170Z,13.70
2022-09-01T18:11:46.476Z,13.47
2022-09-01T18:14:16.894Z,13.35
2022-09-01T18:17:10.605Z,13.18
2022-09-01T18:19:41.082Z,13.00
2022-09-01T18:22:14.405Z,12.81
2022-09-01T18:24:54.462Z,12.61
2022-09-01T18:27:24.252Z,12.47
2022-09-01T18:29:52.940Z,12.35
2022-09-01T18:32:28.716Z,12.21
2022-09-01T18:35:08.428Z,12.07
2022-09-01T18:37:47.545Z,11.92
2022-09-01T18:40:30.351Z,11.75
2022-09-01T18:43:21.524Z,11.61
2022-09-01T18:45:55.961Z,11.53
2022-09-01T18:48:25.915Z,11.44
2022-09-01T18:51:16.846Z,11.39
2022-09-01T18:54:06.221Z,11.29
2022-09-01T18:56:55.022Z,11.24
2022-09-01T18:59:44.148Z,11.13
2022-09-01T19:02:14.353Z,10.94
2022-09-01T19:04:42.849Z,10.88
2022-09-01T19:07:22.095Z,10.76
2022-09-01T19:10:02.258Z,10.72
2022-09-01T19:13:21.243Z,10.58
2022-09-01T19:16:00.000Z,10.50
2022-09-01T19:18:52.976Z,10.45
2022-09-01T19:21:32.292Z,10.40
2022-09-01T19:24:20.902Z,10.33
2022-09-01T19:26:51.897Z,10.26
2022-09-01T19:29:24.011Z,10.14
2022-09-01T19:31:59.835Z,10.06
2022-09-01T19:34:35.430Z,9.99
2022-09-01T19:37:04.079Z,9.91
2022-09-01T19:39:41.480Z,9.83
2022-09-01T19:42:21.007Z,9.75
2022-09-01T19:45:06.898Z,9.65
2022-09-01T19:47:51.303Z,9.62
2022-09-01T19:50:37.427Z,9.55
2022-09-01T19:53:32.281Z,9.50
2022-09-01T19:56:27.566Z,9.44
2022-09-01T19:59:11.676Z,9.38
2022-09-01T20:01:46.345Z,9.36
2022-09-01T20:04:24.391Z,9.29
2022-09-01T20:06:57.816Z,9.27
2022-09-01T20:09:40.378Z,9.20
2022-09-01T20:12:16.228Z,9.13
2022-09-01T20:15:10.994Z,9.09
2022-09-01T20:17:52.726Z,9.05
2022-09-01T20:20:25.676Z,9.01
2022-09-01T20:23:04.321Z,8.94
2022-09-01T20:25:41.415Z,8.92
2022-09-01T20:28:29.248Z,8.84
2022-09-01T20:31:05.425Z,8.83
2022-09-01T20:33:45.301Z,8.78
2022-09-01T20:36:31.425Z,8.75
2022-09-01T20:39:29.019Z,8.73
2022-09-01T20:42:05.043Z,8.71
2022-09-01T20:44:43.637Z,8.65
2022-09-01T20:47:11.994Z,8.61
2022-09-01T20:49:40.040Z,8.52
2022-09-01T20:52:44.419Z,8.46
2022-09-01T20:55:30.491Z,8.43
2022-09-01T20:58:23.347Z,8.38
2022-09-01T21:01:07.463Z,8.30
2022-09-01T21:03:56.441Z,8.22
2022-09-01T21:06:29.428Z,8.17
2022-09-01T21:09:12.318Z,8.13
2022-09-01T21:12:03.448Z,8.06
2022-09-01T21:14:39.458Z,8.07
2022-09-01T21:17:23.769Z,8.00
2022-09-01T21:20:35.465Z,7.96
2022-09-01T21:23:03.768Z,7.90
2022-09-01T21:25:34.155Z,7.86
2022-09-01T21:28:04.567Z,7.83
2022-09-01T21:30:34.199Z,7.82
2022-09-01T21:33:01.759Z,7.74
2022-09-01T21:35:28.678Z,7.70
2022-09-01T21:37:55.779Z,7.67
2022-09-01T21:40:25.260Z,7.66
2022-09-01T21:42:58.714Z,7.61
2022-09-01T21:45:25.977Z,7.60
2022-09-01T21:47:53.716Z,7.56
2022-09-01T21:50:23.119Z,7.54
2022-09-01T21:52:50.708Z,7.47
2022-09-01T21:55:22.518Z,7.43
2022-09-01T21:57:50.759Z,7.37
2022-09-01T22:00:27.562Z,7.29
2022-09-01T22:02:57.701Z,7.26
2022-09-01T22:05:26.335Z,7.23
2022-09-01T22:07:56.112Z,7.18
2022-09-01T22:10:26.104Z,7.14
2022-09-01T22:12:53.890Z,7.12
2022-09-01T22:15:23.744Z,7.10
2022-09-01T22:17:51.744Z,7.06
2022-09-01T22:20:22.488Z,7.04
2022-09-01T22:22:50.576Z,7.01
2022-09-01T22:25:23.899Z,6.97
2022-09-01T22:27:51.336Z,6.96
2022-09-01T22:30:19.333Z,6.92
2022-09-01T22:32:47.600Z,6.87
2022-09-01T22:35:16.464Z,6.84
2022-09-01T22:37:43.753Z,6.82
2022-09-01T22:40:11.885Z,6.78
2022-09-01T22:42:39.490Z,6.76
2022-09-01T22:45:07.871Z,6.76
2022-09-01T22:47:35.322Z,6.73
2022-09-01T22:50:08.059Z,6.71
2022-09-01T22:52:35.715Z,6.62
2022-09-01T22:55:03.991Z,6.60
2022-09-01T22:57:32.239Z,6.56
2022-09-01T22:59:59.220Z,6.53
2022-09-01T23:02:27.293Z,6.52
2022-09-01T23:04:54.586Z,6.47
2022-09-01T23:07:21.399Z,6.47
2022-09-01T23:09:48.189Z,6.47
2022-09-01T23:12:15.356Z,6.41
2022-09-01T23:14:42.166Z,6.34
2022-09-01T23:17:09.315Z,6.31
2022-09-01T23:19:36.315Z,6.28
2022-09-01T23:22:03.365Z,6.24
2022-09-01T23:24:30.357Z,6.20
2022-09-01T23:26:57.877Z,6.20
2022-09-01T23:29:25.457Z,6.17
2022-09-01T23:31:52.773Z,6.13
2022-09-01T23:34:19.872Z,6.12
2022-09-01T23:36:46.868Z,6.03
2022-09-01T23:39:13.819Z,6.02
2022-09-01T23:41:40.927Z,6.00
2022-09-01T23:44:09.772Z,6.00
2022-09-01T23:46:41.969Z,5.96
2022-09-01T23:49:10.116Z,5.96
2022-09-01T23:51:37.050Z,5.94
2022-09-01T23:54:04.113Z,5.92
2022-09-01T23:56:31.655Z,5.92
2022-09-01T23:59:00.388Z,5.91
